Matthew K — WCZ9961 — position and weather

sailwx.info

Track history (hours):
 
Tides and Currents Weather Stations Pressure Air Temp Water Temp Dewpoint Dewpoint Depression Visibility Wind Speed Wind Dir Waves Ship Positions

Matthew K

Owner: G & H Towing Company, GALVESTON, TX. More information available from US FCC via Universal Licensing System and Coast Guard Vessel Documentation Center.

Last reported at 2018-Apr-23 23:39 UTC. Time now 2018-Apr-24 23:04 UTC.
Position N 29°43' W 095°14'.

Length 30 m; draft 5.2 m.

Type: Tug. MMSI: 366921830.

Date/timePositionNaut miles runAvg speedWind from/ knotsBaromVisibWave heightAir tempDewpointWater temp
2018-Apr-23 23:39N 29°43' W 095°14'3 6.4
2018-Apr-23 23:10N 29°45' W 095°11'1 6.5
2018-Apr-23 22:59N 29°44' W 095°09'3 6.0
2018-Apr-23 22:25N 29°45' W 095°06'3 6.0
2018-Apr-23 22:00N 29°44' W 095°03'4 8.1
2018-Apr-23 21:30N 29°42' W 094°59'510.1
2018-Apr-23 21:00N 29°37' W 094°57'510.2
2018-Apr-23 20:30N 29°33' W 094°54'510.3
2018-Apr-23 19:59N 29°28' W 094°51'  
2018-Apr-19 06:25N 29°19' W 094°47'0 0.0
2018-Apr-19 04:22N 29°19' W 094°47'0 0.0
2018-Apr-18 15:10N 29°19' W 094°47'1 2.7
2018-Apr-18 14:45N 29°20' W 094°46'2 6.7
2018-Apr-18 14:28N 29°21' W 094°48'5 1.2
2018-Apr-18 10:18N 29°23' W 094°54'0 0.1
2018-Apr-18 07:59N 29°23' W 094°53'0 0.3
2018-Apr-18 06:48N 29°23' W 094°53'0 0.3
2018-Apr-18 05:01N 29°23' W 094°54'0 0.0
2018-Apr-18 04:16N 29°23' W 094°54'1 1.3
2018-Apr-18 03:42N 29°22' W 094°53'6 0.5
2018-Apr-17 14:23N 29°20' W 094°46'1 3.8
2018-Apr-17 14:00N 29°19' W 094°47'0 0.0
2018-Apr-17 13:30N 29°19' W 094°47'0 0.0
2018-Apr-17 12:30N 29°19' W 094°47'0 0.0
2018-Apr-17 11:57N 29°19' W 094°47'0 0.0
2018-Apr-17 11:27N 29°19' W 094°47'0 0.0
2018-Apr-17 09:45N 29°19' W 094°47'0 0.0
2018-Apr-17 09:30N 29°19' W 094°47'0 0.0
2018-Apr-17 08:12N 29°19' W 094°47'0 0.0
2018-Apr-17 08:00N 29°19' W 094°47'2 4.3
2018-Apr-17 07:30N 29°18' W 094°49'0 0.0
2018-Apr-17 06:51N 29°18' W 094°49'1 2.7
2018-Apr-17 06:29N 29°19' W 094°48'3 5.5
2018-Apr-17 06:00N 29°21' W 094°48'5 9.6
2018-Apr-17 05:30N 29°23' W 094°53'0 0.0
2018-Apr-16 14:19N 29°23' W 094°54'0 0.0
2018-Apr-16 14:00N 29°23' W 094°54'1 0.7
2018-Apr-16 13:03N 29°23' W 094°53'0 3.8
2018-Apr-16 13:00N 29°23' W 094°53'6 0.2
2018-Apr-15 09:55N 29°19' W 094°47'3 7.2
2018-Apr-15 09:27N 29°22' W 094°49'4 3.7
2018-Apr-15 08:26N 29°23' W 094°53'3 5.5
2018-Apr-15 07:57N 29°22' W 094°50'4 0.2
2018-Apr-14 12:48N 29°19' W 094°48'1 2.3
2018-Apr-14 12:23N 29°19' W 094°47'2 0.4
2018-Apr-14 07:15N 29°19' W 094°49'2 1.7
2018-Apr-14 06:16N 29°19' W 094°47'0 0.0
2018-Apr-14 04:23N 29°19' W 094°47'  
Track history (hours):
 
Tides and Currents Weather Stations Pressure Air Temp Water Temp Dewpoint Dewpoint Depression Visibility Wind Speed Wind Dir Waves Ship Positions

Matthew K

Owner: G & H Towing Company, GALVESTON, TX. More information available from US FCC via Universal Licensing System and Coast Guard Vessel Documentation Center.

Last reported at 2018-Apr-23 23:39 UTC. Time now 2018-Apr-24 23:04 UTC.
Position N 29°43' W 095°14'.

Length 30 m; draft 5.2 m.

Type: Tug. MMSI: 366921830.

Date/timePositionNaut miles runAvg speedWind from/ knotsBaromVisibWave heightAir tempDewpointWater temp
2018-Apr-23 23:39N 29°43' W 095°14'3 6.4
2018-Apr-23 23:10N 29°45' W 095°11'1 6.5
2018-Apr-23 22:59N 29°44' W 095°09'3 6.0
2018-Apr-23 22:25N 29°45' W 095°06'3 6.0
2018-Apr-23 22:00N 29°44' W 095°03'4 8.1
2018-Apr-23 21:30N 29°42' W 094°59'510.1
2018-Apr-23 21:00N 29°37' W 094°57'510.2
2018-Apr-23 20:30N 29°33' W 094°54'510.3
2018-Apr-23 19:59N 29°28' W 094°51'  
2018-Apr-19 06:25N 29°19' W 094°47'0 0.0
2018-Apr-19 04:22N 29°19' W 094°47'0 0.0
2018-Apr-18 15:10N 29°19' W 094°47'1 2.7
2018-Apr-18 14:45N 29°20' W 094°46'2 6.7
2018-Apr-18 14:28N 29°21' W 094°48'5 1.2
2018-Apr-18 10:18N 29°23' W 094°54'0 0.1
2018-Apr-18 07:59N 29°23' W 094°53'0 0.3
2018-Apr-18 06:48N 29°23' W 094°53'0 0.3
2018-Apr-18 05:01N 29°23' W 094°54'0 0.0
2018-Apr-18 04:16N 29°23' W 094°54'1 1.3
2018-Apr-18 03:42N 29°22' W 094°53'6 0.5
2018-Apr-17 14:23N 29°20' W 094°46'1 3.8
2018-Apr-17 14:00N 29°19' W 094°47'0 0.0
2018-Apr-17 13:30N 29°19' W 094°47'0 0.0
2018-Apr-17 12:30N 29°19' W 094°47'0 0.0
2018-Apr-17 11:57N 29°19' W 094°47'0 0.0
2018-Apr-17 11:27N 29°19' W 094°47'0 0.0
2018-Apr-17 09:45N 29°19' W 094°47'0 0.0
2018-Apr-17 09:30N 29°19' W 094°47'0 0.0
2018-Apr-17 08:12N 29°19' W 094°47'0 0.0
2018-Apr-17 08:00N 29°19' W 094°47'2 4.3
2018-Apr-17 07:30N 29°18' W 094°49'0 0.0
2018-Apr-17 06:51N 29°18' W 094°49'1 2.7
2018-Apr-17 06:29N 29°19' W 094°48'3 5.5
2018-Apr-17 06:00N 29°21' W 094°48'5 9.6
2018-Apr-17 05:30N 29°23' W 094°53'0 0.0
2018-Apr-16 14:19N 29°23' W 094°54'0 0.0
2018-Apr-16 14:00N 29°23' W 094°54'1 0.7
2018-Apr-16 13:03N 29°23' W 094°53'0 3.8
2018-Apr-16 13:00N 29°23' W 094°53'6 0.2
2018-Apr-15 09:55N 29°19' W 094°47'3 7.2
2018-Apr-15 09:27N 29°22' W 094°49'4 3.7
2018-Apr-15 08:26N 29°23' W 094°53'3 5.5
2018-Apr-15 07:57N 29°22' W 094°50'4 0.2
2018-Apr-14 12:48N 29°19' W 094°48'1 2.3
2018-Apr-14 12:23N 29°19' W 094°47'2 0.4
2018-Apr-14 07:15N 29°19' W 094°49'2 1.7
2018-Apr-14 06:16N 29°19' W 094°47'0 0.0
2018-Apr-14 04:23N 29°19' W 094°47'  

Dump ship's entire track history